Time;durP1;ratioP1;P1;durP2;ratioP2;P2;SDS_P1;SDS_P2;PMS_P1;PMS_P2;Temp;Humidity;BMP_temperature;BMP_pressure;BME280_temperature;BME280_humidity;BME280_pressure;Samples;Min_cycle;Max_cycle;Signal;HPM_P1;HPM_P2
2022/08/11 00:03:13;;;;;;;5.53;1.65;;;;;;;;;;10455551;28;20017;-56
2022/08/11 00:08:28;;;;;;;3.10;1.90;;;;;;;;;;10494784;28;20036;-57
2022/08/11 00:13:45;;;;;;;8.32;1.50;;;;;;;;;;10496078;28;20029;-56
2022/08/11 00:18:53;;;;;;;3.80;1.77;;;;;;;;;;10494957;28;20032;-57
2022/08/11 00:24:02;;;;;;;3.90;1.73;;;;;;;;;;10495743;28;20045;-56
2022/08/11 00:29:11;;;;;;;2.17;1.50;;;;;;;;;;10477212;28;20033;-57
2022/08/11 00:34:12;;;;;;;2.47;1.65;;;;;;;;;;10476671;28;20032;-57
2022/08/11 00:39:14;;;;;;;3.83;1.70;;;;;;;;;;10495867;28;20079;-57
2022/08/11 00:44:40;;;;;;;2.58;1.50;;;;;;;;;;10476551;28;20028;-57
2022/08/11 00:50:16;;;;;;;3.78;2.75;;;;;;;;;;10478078;28;20060;-58
2022/08/11 00:56:20;;;;;;;2.53;1.52;;;;;;;;;;10475203;28;20020;-58
2022/08/11 01:01:32;;;;;;;2.40;1.58;;;;;;;;;;10494464;28;20541;-56
2022/08/11 01:07:15;;;;;;;1.92;1.48;;;;;;;;;;10474366;28;20049;-55
2022/08/11 01:12:50;;;;;;;1.40;1.20;;;;;;;;;;10476510;28;20180;-57
2022/08/11 01:18:27;;;;;;;1.35;1.20;;;;;;;;;;10492720;28;20048;-57
2022/08/11 01:24:06;;;;;;;4.93;1.63;;;;;;;;;;10492706;28;20029;-57
2022/08/11 01:29:09;;;;;;;2.80;1.50;;;;;;;;;;10493570;28;20032;-56
2022/08/11 01:34:53;;;;;;;2.40;1.60;;;;;;;;;;10491730;28;20020;-57
2022/08/11 01:40:31;;;;;;;2.75;1.52;;;;;;;;;;10480870;28;20518;-56
2022/08/11 01:45:49;;;;;;;2.47;1.40;;;;;;;;;;10490312;28;20037;-56
2022/08/11 01:51:43;;;;;;;2.60;1.60;;;;;;;;;;10474336;28;20028;-56
2022/08/11 01:57:15;;;;;;;1.50;1.10;;;;;;;;;;10463177;28;20134;-58
2022/08/11 02:02:48;;;;;;;2.85;1.33;;;;;;;;;;10474251;28;20034;-56
2022/08/11 02:08:14;;;;;;;2.97;1.13;;;;;;;;;;10475133;28;20435;-57
2022/08/11 02:13:44;;;;;;;1.85;1.30;;;;;;;;;;10474376;28;20024;-56
2022/08/11 02:24:29;;;;;;;1.50;1.40;;;;;;;;;;10490584;28;20119;-54
2022/08/11 02:30:03;;;;;;;2.90;1.50;;;;;;;;;;10488789;28;20066;-57
2022/08/11 02:35:27;;;;;;;1.27;1.17;;;;;;;;;;10474644;28;20036;-57
2022/08/11 02:47:15;;;;;;;2.03;1.38;;;;;;;;;;10489936;28;20041;-57
2022/08/11 02:52:51;;;;;;;3.90;1.50;;;;;;;;;;10481497;28;20028;-57
2022/08/11 02:58:31;;;;;;;2.45;1.30;;;;;;;;;;10484484;28;20137;-57
2022/08/11 03:03:45;;;;;;;2.50;1.10;;;;;;;;;;10480510;22;20048;-60
2022/08/11 03:09:16;;;;;;;5.30;1.27;;;;;;;;;;10534165;28;20101;-52
2022/08/11 03:21:01;;;;;;;2.08;1.40;;;;;;;;;;10489903;28;20115;-51
2022/08/11 03:26:26;;;;;;;2.03;1.13;;;;;;;;;;10498089;28;20037;-54
2022/08/11 03:31:39;;;;;;;1.88;1.33;;;;;;;;;;10511933;28;20028;-53
2022/08/11 03:37:07;;;;;;;1.73;1.30;;;;;;;;;;10512012;28;20017;-50
2022/08/11 03:42:18;;;;;;;2.40;1.40;;;;;;;;;;10497829;28;20078;-58
2022/08/11 03:47:59;;;;;;;4.03;1.55;;;;;;;;;;10495338;28;20051;-53
2022/08/11 03:54:00;;;;;;;2.53;1.50;;;;;;;;;;10460082;28;20522;-53
2022/08/11 03:59:27;;;;;;;2.53;1.33;;;;;;;;;;10488695;28;20043;-53
2022/08/11 04:04:43;;;;;;;1.42;1.33;;;;;;;;;;10467094;28;20044;-53
2022/08/11 04:10:23;;;;;;;1.42;1.33;;;;;;;;;;10496729;28;20024;-51
2022/08/11 04:16:20;;;;;;;1.25;1.08;;;;;;;;;;10494414;28;20040;-54
2022/08/11 04:21:29;;;;;;;1.67;1.20;;;;;;;;;;10474102;28;20040;-51
2022/08/11 04:27:17;;;;;;;1.50;1.15;;;;;;;;;;10495178;28;20119;-50
2022/08/11 04:32:55;;;;;;;2.05;1.10;;;;;;;;;;10494459;28;20365;-53
2022/08/11 04:39:03;;;;;;;1.30;1.05;;;;;;;;;;10488082;28;20488;-51
2022/08/11 04:44:43;;;;;;;1.73;1.15;;;;;;;;;;10365817;28;20276;-52
2022/08/11 05:02:08;;;;;;;1.83;1.33;;;;;;;;;;10311209;28;20167;-52
2022/08/11 05:08:05;;;;;;;1.20;1.10;;;;;;;;;;10311989;28;20120;-54
2022/08/11 05:35:40;;;;;;;10.43;1.70;;;;;;;;;;10493607;28;20029;-52
2022/08/11 05:57:01;;;;;;;11.82;3.10;;;;;;;;;;10486231;28;20032;-53
2022/08/11 06:02:06;;;;;;;12.95;2.83;;;;;;;;;;10487541;28;20036;-51
2022/08/11 06:07:10;;;;;;;8.10;2.22;;;;;;;;;;10490844;28;20068;-54
2022/08/11 06:12:27;;;;;;;9.95;1.60;;;;;;;;;;10491027;28;20099;-54
2022/08/11 06:17:30;;;;;;;4.97;2.15;;;;;;;;;;10481416;28;20032;-55
2022/08/11 06:22:32;;;;;;;10.95;2.05;;;;;;;;;;10490192;28;20079;-54
2022/08/11 06:27:36;;;;;;;15.73;2.03;;;;;;;;;;10490025;28;20031;-55
2022/08/11 06:32:37;;;;;;;4.78;2.05;;;;;;;;;;10489963;28;20472;-54
2022/08/11 06:38:06;;;;;;;8.88;2.13;;;;;;;;;;10491774;28;20440;-58
2022/08/11 06:43:24;;;;;;;6.07;1.80;;;;;;;;;;10478092;28;20082;-56
2022/08/11 06:48:25;;;;;;;7.75;2.20;;;;;;;;;;10490766;28;20028;-53
2022/08/11 06:53:33;;;;;;;3.78;1.67;;;;;;;;;;10489328;28;20396;-54
2022/08/11 07:04:07;;;;;;;3.83;1.38;;;;;;;;;;10490877;28;19916;-51
2022/08/11 07:31:20;;;;;;;1.83;1.15;;;;;;;;;;10490649;28;20032;-54
2022/08/11 07:36:24;;;;;;;3.63;1.27;;;;;;;;;;10488539;28;20411;-54
2022/08/11 07:41:27;;;;;;;1.92;1.38;;;;;;;;;;10490422;28;20094;-53
2022/08/11 08:18:27;;;;;;;1.45;1.30;;;;;;;;;;10496280;28;20032;-53
2022/08/11 08:23:34;;;;;;;1.60;1.50;;;;;;;;;;10512165;28;20082;-54
2022/08/11 08:28:35;;;;;;;1.67;1.25;;;;;;;;;;10495029;28;20443;-59
2022/08/11 08:33:40;;;;;;;2.47;1.17;;;;;;;;;;10511275;28;20095;-62
2022/08/11 08:38:42;;;;;;;1.80;1.27;;;;;;;;;;10495428;28;20444;-59
2022/08/11 08:43:47;;;;;;;1.38;1.27;;;;;;;;;;10495906;28;20430;-52
2022/08/11 08:48:49;;;;;;;1.42;1.13;;;;;;;;;;10510235;28;20082;-54
2022/08/11 08:53:52;;;;;;;1.58;1.20;;;;;;;;;;10494414;28;20146;-53
2022/08/11 08:58:53;;;;;;;2.03;1.52;;;;;;;;;;10510226;28;20047;-53
2022/08/11 09:03:54;;;;;;;2.30;1.40;;;;;;;;;;10493695;28;20111;-59
2022/08/11 09:08:55;;;;;;;1.20;1.10;;;;;;;;;;10494635;28;20021;-53
2022/08/11 09:13:56;;;;;;;1.67;1.13;;;;;;;;;;10493522;28;20487;-54
2022/08/11 09:18:59;;;;;;;1.80;1.13;;;;;;;;;;10494523;28;20028;-53
2022/08/11 09:29:20;;;;;;;2.58;1.40;;;;;;;;;;10493449;28;20028;-56
2022/08/11 09:34:21;;;;;;;2.22;1.38;;;;;;;;;;10492582;28;20367;-55
2022/08/11 09:44:48;;;;;;;2.33;1.33;;;;;;;;;;10491699;28;20473;-54
2022/08/11 09:49:53;;;;;;;3.13;1.50;;;;;;;;;;10492674;28;20025;-53
2022/08/11 09:54:54;;;;;;;3.03;1.20;;;;;;;;;;10492478;28;20055;-52
2022/08/11 09:59:55;;;;;;;4.20;1.20;;;;;;;;;;10492196;28;20597;-54
2022/08/11 10:10:21;;;;;;;1.73;1.23;;;;;;;;;;10506157;28;20115;-53
2022/08/11 10:15:37;;;;;;;2.00;1.30;;;;;;;;;;10491045;28;20494;-54
2022/08/11 10:20:38;;;;;;;2.47;1.30;;;;;;;;;;10490222;28;20470;-54
2022/08/11 10:36:20;;;;;;;1.30;1.15;;;;;;;;;;10490465;28;20016;-52
2022/08/11 11:02:43;;;;;;;2.35;1.42;;;;;;;;;;10490172;28;20021;-53
2022/08/11 11:18:56;;;;;;;4.28;1.92;;;;;;;;;;10489536;28;20176;-54
2022/08/11 11:24:26;;;;;;;1.50;1.25;;;;;;;;;;10486974;28;20032;-55
2022/08/11 11:29:54;;;;;;;3.10;1.55;;;;;;;;;;10479023;28;20035;-55
2022/08/11 11:35:20;;;;;;;3.90;1.30;;;;;;;;;;10489952;28;20063;-52
2022/08/11 11:40:22;;;;;;;3.15;1.50;;;;;;;;;;10489939;28;20059;-54
2022/08/11 11:45:27;;;;;;;3.13;1.75;;;;;;;;;;10494057;28;20032;-54
2022/08/11 11:50:35;;;;;;;2.85;1.30;;;;;;;;;;10488513;28;20021;-54
2022/08/11 11:55:36;;;;;;;2.20;1.58;;;;;;;;;;10482662;28;20032;-55
2022/08/11 12:05:59;;;;;;;2.60;1.55;;;;;;;;;;10496775;28;20037;-55
2022/08/11 12:16:23;;;;;;;3.47;1.60;;;;;;;;;;10496767;28;20025;-55
2022/08/11 12:21:25;;;;;;;2.45;1.40;;;;;;;;;;10495378;28;20472;-53
2022/08/11 12:31:47;;;;;;;3.58;1.27;;;;;;;;;;10508163;28;20033;-54
2022/08/11 12:36:55;;;;;;;5.30;1.80;;;;;;;;;;10493237;28;20086;-54
2022/08/11 12:47:19;;;;;;;1.90;1.60;;;;;;;;;;10508016;28;20024;-54
2022/08/11 12:52:33;;;;;;;3.75;1.38;;;;;;;;;;10493841;28;20091;-53
2022/08/11 13:08:30;;;;;;;5.43;1.63;;;;;;;;;;10489556;28;20040;-54
2022/08/11 13:13:31;;;;;;;3.58;1.60;;;;;;;;;;10491960;28;20462;-54
2022/08/11 13:18:33;;;;;;;3.10;1.63;;;;;;;;;;10492351;28;20028;-53
2022/08/11 13:23:34;;;;;;;4.57;1.63;;;;;;;;;;10491505;28;20025;-54
2022/08/11 13:28:36;;;;;;;7.32;1.50;;;;;;;;;;10489713;28;20032;-53
2022/08/11 13:33:44;;;;;;;4.93;1.30;;;;;;;;;;10490226;28;20025;-53
2022/08/11 13:38:46;;;;;;;2.60;1.40;;;;;;;;;;10488503;28;20122;-53
2022/08/11 13:43:47;;;;;;;4.07;1.52;;;;;;;;;;10491550;28;20052;-54
2022/08/11 13:48:53;;;;;;;3.20;1.13;;;;;;;;;;10490781;28;20060;-53
2022/08/11 13:53:55;;;;;;;2.95;1.23;;;;;;;;;;10490670;28;20035;-51
2022/08/11 13:58:56;;;;;;;3.60;1.38;;;;;;;;;;10490137;28;20031;-55
2022/08/11 14:04:15;;;;;;;4.97;1.60;;;;;;;;;;10489802;28;20063;-54
2022/08/11 14:09:26;;;;;;;3.65;1.90;;;;;;;;;;10488291;28;20067;-54
2022/08/11 14:14:34;;;;;;;15.05;3.47;;;;;;;;;;10488050;28;20025;-52
2022/08/11 14:19:40;;;;;;;14.02;2.72;;;;;;;;;;10491300;28;20035;-56
2022/08/11 14:24:48;;;;;;;6.88;2.35;;;;;;;;;;10489737;28;20108;-53
2022/08/11 14:29:49;;;;;;;5.93;2.22;;;;;;;;;;10490255;28;20035;-54
2022/08/11 14:34:50;;;;;;;5.57;1.90;;;;;;;;;;10489574;28;20464;-53
2022/08/11 14:39:55;;;;;;;8.15;1.73;;;;;;;;;;10490214;28;20067;-53
2022/08/11 14:50:30;;;;;;;6.03;1.70;;;;;;;;;;10489991;28;20115;-54
2022/08/11 15:01:01;;;;;;;3.22;1.50;;;;;;;;;;10486836;28;20032;-54
2022/08/11 15:06:03;;;;;;;7.35;1.60;;;;;;;;;;10488301;28;20620;-54
2022/08/11 15:12:07;;;;;;;3.30;1.55;;;;;;;;;;10488876;28;20032;-52
2022/08/11 15:38:01;;;;;;;2.40;1.63;;;;;;;;;;10497988;28;20052;-54
2022/08/11 15:49:15;;;;;;;4.32;1.60;;;;;;;;;;10511319;28;20032;-54
2022/08/11 15:54:21;;;;;;;2.65;1.60;;;;;;;;;;10495980;28;20464;-54
2022/08/11 16:04:46;;;;;;;1.92;1.50;;;;;;;;;;10497419;28;20044;-54
2022/08/11 16:10:09;;;;;;;2.67;1.20;;;;;;;;;;10496144;28;20055;-58
2022/08/11 16:20:32;;;;;;;4.88;1.80;;;;;;;;;;10495885;28;20430;-55
2022/08/11 16:25:35;;;;;;;1.83;1.20;;;;;;;;;;10482267;28;20025;-53
2022/08/11 16:30:42;;;;;;;1.33;1.20;;;;;;;;;;10494825;28;20025;-53
2022/08/11 16:41:10;;;;;;;2.15;1.35;;;;;;;;;;10510988;28;20111;-53
2022/08/11 16:51:19;;;;;;;6.28;1.30;;;;;;;;;;10494167;28;20032;-54
2022/08/11 16:56:30;;;;;;;2.15;1.52;;;;;;;;;;10495393;28;20039;-54
2022/08/11 17:01:32;;;;;;;1.85;1.20;;;;;;;;;;10480515;28;20078;-54
2022/08/11 17:17:37;;;;;;;1.67;1.27;;;;;;;;;;10498576;28;20025;-51
2022/08/11 17:27:59;;;;;;;1.25;1.15;;;;;;;;;;10491836;28;20025;-54
2022/08/11 17:38:22;;;;;;;1.63;1.10;;;;;;;;;;10493095;28;20028;-53
2022/08/11 17:48:44;;;;;;;1.25;1.10;;;;;;;;;;10492118;28;20028;-53
2022/08/11 18:04:27;;;;;;;6.68;2.22;;;;;;;;;;10489845;28;20127;-60
